sensor_id;sensor_type;location;lat;lon;timestamp;pressure;altitude;pressure_sealevel;temperature;humidity
81999;BME280;71598;46.516;-122.928;2023-12-29T00:00:16;100363.94;;;15.17;28.99
81999;BME280;71598;46.516;-122.928;2023-12-29T00:02:40;100358.98;;;15.52;29.01
81999;BME280;71598;46.516;-122.928;2023-12-29T00:05:06;100367.16;;;15.24;29.03
81999;BME280;71598;46.516;-122.928;2023-12-29T00:07:32;100363.50;;;15.58;29.04
81999;BME280;71598;46.516;-122.928;2023-12-29T00:09:57;100364.84;;;15.38;29.06
81999;BME280;71598;46.516;-122.928;2023-12-29T00:12:22;100358.63;;;15.22;29.11
81999;BME280;71598;46.516;-122.928;2023-12-29T00:14:48;100349.72;;;15.49;29.00
81999;BME280;71598;46.516;-122.928;2023-12-29T00:17:13;100340.21;;;15.13;29.10
81999;BME280;71598;46.516;-122.928;2023-12-29T00:19:38;100339.05;;;15.19;29.11
81999;BME280;71598;46.516;-122.928;2023-12-29T00:22:12;100338.98;;;15.16;29.03
81999;BME280;71598;46.516;-122.928;2023-12-29T00:24:29;100335.69;;;15.51;28.98
81999;BME280;71598;46.516;-122.928;2023-12-29T00:26:55;100335.44;;;15.65;29.06
81999;BME280;71598;46.516;-122.928;2023-12-29T00:29:20;100331.51;;;15.41;29.04
81999;BME280;71598;46.516;-122.928;2023-12-29T00:31:46;100325.64;;;15.41;29.10
81999;BME280;71598;46.516;-122.928;2023-12-29T00:34:10;100327.10;;;15.51;29.13
81999;BME280;71598;46.516;-122.928;2023-12-29T00:36:35;100325.12;;;15.45;29.13
81999;BME280;71598;46.516;-122.928;2023-12-29T00:39:01;100322.98;;;15.15;29.18
81999;BME280;71598;46.516;-122.928;2023-12-29T00:41:26;100325.25;;;15.25;29.17
81999;BME280;71598;46.516;-122.928;2023-12-29T00:43:52;100325.22;;;15.42;29.15
81999;BME280;71598;46.516;-122.928;2023-12-29T00:46:18;100322.51;;;15.42;29.19
81999;BME280;71598;46.516;-122.928;2023-12-29T00:48:43;100324.26;;;15.27;29.23
81999;BME280;71598;46.516;-122.928;2023-12-29T00:51:09;100334.29;;;15.37;29.25
81999;BME280;71598;46.516;-122.928;2023-12-29T00:53:35;100330.65;;;15.42;29.09
81999;BME280;71598;46.516;-122.928;2023-12-29T00:56:00;100332.23;;;15.54;28.92
81999;BME280;71598;46.516;-122.928;2023-12-29T00:58:24;100343.10;;;15.53;29.02
81999;BME280;71598;46.516;-122.928;2023-12-29T01:00:49;100346.71;;;15.36;29.06
81999;BME280;71598;46.516;-122.928;2023-12-29T01:03:16;100348.48;;;15.21;29.06
81999;BME280;71598;46.516;-122.928;2023-12-29T01:05:40;100346.30;;;15.31;29.06
81999;BME280;71598;46.516;-122.928;2023-12-29T01:08:07;100344.86;;;15.31;29.08
81999;BME280;71598;46.516;-122.928;2023-12-29T01:10:31;100341.90;;;15.81;29.10
81999;BME280;71598;46.516;-122.928;2023-12-29T01:12:56;100337.58;;;15.83;29.18
81999;BME280;71598;46.516;-122.928;2023-12-29T01:15:21;100334.93;;;15.53;29.24
81999;BME280;71598;46.516;-122.928;2023-12-29T01:17:46;100332.40;;;15.71;29.20
81999;BME280;71598;46.516;-122.928;2023-12-29T01:20:12;100331.40;;;15.43;29.15
81999;BME280;71598;46.516;-122.928;2023-12-29T01:22:36;100327.75;;;15.26;29.19
81999;BME280;71598;46.516;-122.928;2023-12-29T01:25:02;100321.67;;;15.81;29.04
81999;BME280;71598;46.516;-122.928;2023-12-29T01:27:30;100318.96;;;16.33;28.42
81999;BME280;71598;46.516;-122.928;2023-12-29T01:29:54;100320.70;;;16.06;28.63
81999;BME280;71598;46.516;-122.928;2023-12-29T01:32:19;100318.54;;;15.33;28.93
81999;BME280;71598;46.516;-122.928;2023-12-29T01:34:46;100317.19;;;15.62;29.01
81999;BME280;71598;46.516;-122.928;2023-12-29T01:37:11;100320.68;;;15.80;29.14
81999;BME280;71598;46.516;-122.928;2023-12-29T01:39:35;100323.15;;;15.65;29.09
81999;BME280;71598;46.516;-122.928;2023-12-29T01:42:01;100322.78;;;15.75;29.18
81999;BME280;71598;46.516;-122.928;2023-12-29T01:44:26;100321.01;;;15.38;29.16
81999;BME280;71598;46.516;-122.928;2023-12-29T01:46:54;100320.95;;;15.34;29.09
81999;BME280;71598;46.516;-122.928;2023-12-29T01:49:19;100321.48;;;15.44;29.06
81999;BME280;71598;46.516;-122.928;2023-12-29T01:51:43;100318.01;;;15.43;29.08
81999;BME280;71598;46.516;-122.928;2023-12-29T01:54:07;100316.37;;;16.10;29.16
81999;BME280;71598;46.516;-122.928;2023-12-29T01:56:33;100318.83;;;15.72;29.25
81999;BME280;71598;46.516;-122.928;2023-12-29T01:58:58;100315.17;;;15.45;29.22
81999;BME280;71598;46.516;-122.928;2023-12-29T02:01:24;100313.76;;;15.48;29.01
81999;BME280;71598;46.516;-122.928;2023-12-29T02:03:50;100319.26;;;15.39;29.09
81999;BME280;71598;46.516;-122.928;2023-12-29T02:06:15;100320.46;;;15.56;29.10
81999;BME280;71598;46.516;-122.928;2023-12-29T02:08:42;100322.36;;;15.55;29.07
81999;BME280;71598;46.516;-122.928;2023-12-29T02:11:05;100326.49;;;15.80;29.17
81999;BME280;71598;46.516;-122.928;2023-12-29T02:13:31;100327.49;;;15.86;29.26
81999;BME280;71598;46.516;-122.928;2023-12-29T02:16:00;100320.01;;;15.46;29.25
81999;BME280;71598;46.516;-122.928;2023-12-29T02:18:21;100321.86;;;15.26;29.21
81999;BME280;71598;46.516;-122.928;2023-12-29T02:20:46;100324.99;;;15.39;29.10
81999;BME280;71598;46.516;-122.928;2023-12-29T02:23:11;100323.86;;;15.66;29.17
81999;BME280;71598;46.516;-122.928;2023-12-29T02:25:36;100322.72;;;15.60;29.24
81999;BME280;71598;46.516;-122.928;2023-12-29T02:28:06;100324.24;;;15.79;29.37
81999;BME280;71598;46.516;-122.928;2023-12-29T02:30:32;100317.43;;;15.36;29.25
81999;BME280;71598;46.516;-122.928;2023-12-29T02:32:55;100319.23;;;15.44;29.16
81999;BME280;71598;46.516;-122.928;2023-12-29T02:35:21;100318.37;;;15.32;29.17
81999;BME280;71598;46.516;-122.928;2023-12-29T02:37:43;100318.78;;;15.32;29.19
81999;BME280;71598;46.516;-122.928;2023-12-29T02:40:11;100323.69;;;15.76;29.20
81999;BME280;71598;46.516;-122.928;2023-12-29T02:42:34;100324.95;;;15.72;29.24
81999;BME280;71598;46.516;-122.928;2023-12-29T02:45:00;100322.32;;;15.55;29.40
81999;BME280;71598;46.516;-122.928;2023-12-29T02:47:25;100324.31;;;15.69;29.49
81999;BME280;71598;46.516;-122.928;2023-12-29T02:49:51;100320.64;;;15.36;29.43
81999;BME280;71598;46.516;-122.928;2023-12-29T02:52:15;100315.46;;;15.44;29.31
81999;BME280;71598;46.516;-122.928;2023-12-29T02:54:40;100306.25;;;15.28;29.28
81999;BME280;71598;46.516;-122.928;2023-12-29T02:57:06;100297.93;;;15.46;29.41
81999;BME280;71598;46.516;-122.928;2023-12-29T02:59:31;100293.52;;;15.73;29.50
81999;BME280;71598;46.516;-122.928;2023-12-29T03:01:57;100294.45;;;15.58;29.61
81999;BME280;71598;46.516;-122.928;2023-12-29T03:04:23;100293.10;;;15.31;29.49
81999;BME280;71598;46.516;-122.928;2023-12-29T03:06:48;100291.87;;;15.79;29.35
81999;BME280;71598;46.516;-122.928;2023-12-29T03:09:16;100292.20;;;15.45;29.35
81999;BME280;71598;46.516;-122.928;2023-12-29T03:11:39;100291.46;;;15.41;29.38
81999;BME280;71598;46.516;-122.928;2023-12-29T03:14:04;100293.47;;;15.81;29.42
81999;BME280;71598;46.516;-122.928;2023-12-29T03:16:31;100291.52;;;15.42;29.49
81999;BME280;71598;46.516;-122.928;2023-12-29T03:18:55;100295.19;;;15.47;29.48
81999;BME280;71598;46.516;-122.928;2023-12-29T03:21:21;100297.25;;;15.44;29.53
81999;BME280;71598;46.516;-122.928;2023-12-29T03:23:47;100295.72;;;15.37;29.51
81999;BME280;71598;46.516;-122.928;2023-12-29T03:26:12;100291.21;;;15.49;29.51
81999;BME280;71598;46.516;-122.928;2023-12-29T03:28:37;100294.32;;;15.63;29.56
81999;BME280;71598;46.516;-122.928;2023-12-29T03:31:04;100296.50;;;15.79;29.49
81999;BME280;71598;46.516;-122.928;2023-12-29T03:33:28;100291.82;;;15.47;29.74
81999;BME280;71598;46.516;-122.928;2023-12-29T03:35:53;100290.37;;;15.36;29.45
81999;BME280;71598;46.516;-122.928;2023-12-29T03:38:19;100292.06;;;15.96;29.34
81999;BME280;71598;46.516;-122.928;2023-12-29T03:40:47;100293.75;;;15.56;29.19
81999;BME280;71598;46.516;-122.928;2023-12-29T03:43:12;100284.32;;;15.47;29.25
81999;BME280;71598;46.516;-122.928;2023-12-29T03:45:35;100295.61;;;15.85;29.31
81999;BME280;71598;46.516;-122.928;2023-12-29T03:48:01;100297.11;;;15.76;29.38
81999;BME280;71598;46.516;-122.928;2023-12-29T03:50:26;100298.06;;;15.47;29.43
81999;BME280;71598;46.516;-122.928;2023-12-29T03:52:51;100295.34;;;15.41;29.39
81999;BME280;71598;46.516;-122.928;2023-12-29T03:55:17;100301.23;;;15.53;29.40
81999;BME280;71598;46.516;-122.928;2023-12-29T03:57:45;100300.04;;;15.33;29.39
81999;BME280;71598;46.516;-122.928;2023-12-29T04:00:12;100303.13;;;15.35;29.31
81999;BME280;71598;46.516;-122.928;2023-12-29T04:02:33;100299.67;;;16.03;29.22
81999;BME280;71598;46.516;-122.928;2023-12-29T04:04:59;100302.82;;;15.62;29.36
81999;BME280;71598;46.516;-122.928;2023-12-29T04:07:24;100300.11;;;15.53;29.33
81999;BME280;71598;46.516;-122.928;2023-12-29T04:09:51;100292.38;;;15.56;29.24
81999;BME280;71598;46.516;-122.928;2023-12-29T04:12:15;100285.86;;;15.59;29.06
81999;BME280;71598;46.516;-122.928;2023-12-29T04:14:40;100276.13;;;15.97;28.56
81999;BME280;71598;46.516;-122.928;2023-12-29T04:17:07;100271.94;;;15.75;28.83
81999;BME280;71598;46.516;-122.928;2023-12-29T04:19:31;100274.24;;;15.66;28.98
81999;BME280;71598;46.516;-122.928;2023-12-29T04:21:58;100273.71;;;15.58;29.07
81999;BME280;71598;46.516;-122.928;2023-12-29T04:24:24;100279.39;;;15.63;29.05
81999;BME280;71598;46.516;-122.928;2023-12-29T04:26:47;100282.92;;;15.30;29.00
81999;BME280;71598;46.516;-122.928;2023-12-29T04:29:13;100275.75;;;15.47;28.89
81999;BME280;71598;46.516;-122.928;2023-12-29T04:31:38;100268.54;;;15.30;28.86
81999;BME280;71598;46.516;-122.928;2023-12-29T04:34:04;100266.95;;;15.09;28.87
81999;BME280;71598;46.516;-122.928;2023-12-29T04:36:31;100263.93;;;15.11;28.85
81999;BME280;71598;46.516;-122.928;2023-12-29T04:38:54;100260.77;;;15.79;29.03
81999;BME280;71598;46.516;-122.928;2023-12-29T04:41:20;100261.63;;;16.11;29.02
81999;BME280;71598;46.516;-122.928;2023-12-29T04:43:44;100256.67;;;16.15;29.02
81999;BME280;71598;46.516;-122.928;2023-12-29T04:46:13;100253.48;;;15.79;29.24
81999;BME280;71598;46.516;-122.928;2023-12-29T04:48:35;100253.86;;;15.66;29.32
81999;BME280;71598;46.516;-122.928;2023-12-29T04:51:00;100255.69;;;15.86;29.26
81999;BME280;71598;46.516;-122.928;2023-12-29T04:53:26;100254.82;;;16.12;29.25
81999;BME280;71598;46.516;-122.928;2023-12-29T04:55:52;100250.41;;;16.11;29.44
81999;BME280;71598;46.516;-122.928;2023-12-29T04:58:17;100247.01;;;16.13;29.47
81999;BME280;71598;46.516;-122.928;2023-12-29T05:01:28;100239.36;;;14.14;29.44
81999;BME280;71598;46.516;-122.928;2023-12-29T05:03:53;100236.30;;;13.08;28.36
81999;BME280;71598;46.516;-122.928;2023-12-29T05:06:18;100232.36;;;16.00;26.91
81999;BME280;71598;46.516;-122.928;2023-12-29T05:08:44;100226.84;;;16.76;26.81
81999;BME280;71598;46.516;-122.928;2023-12-29T05:11:11;100222.31;;;16.67;26.81
81999;BME280;71598;46.516;-122.928;2023-12-29T05:13:35;100220.54;;;15.89;27.07
81999;BME280;71598;46.516;-122.928;2023-12-29T05:16:01;100219.94;;;15.54;27.35
81999;BME280;71598;46.516;-122.928;2023-12-29T05:18:25;100212.82;;;15.96;27.14
81999;BME280;71598;46.516;-122.928;2023-12-29T05:20:53;100218.43;;;15.65;27.50
81999;BME280;71598;46.516;-122.928;2023-12-29T05:23:17;100213.03;;;15.94;27.59
81999;BME280;71598;46.516;-122.928;2023-12-29T05:25:43;100203.56;;;16.40;27.41
81999;BME280;71598;46.516;-122.928;2023-12-29T05:28:08;100197.95;;;16.59;27.24
81999;BME280;71598;46.516;-122.928;2023-12-29T05:30:33;100189.61;;;16.83;27.23
81999;BME280;71598;46.516;-122.928;2023-12-29T05:32:59;100188.83;;;16.25;27.31
81999;BME280;71598;46.516;-122.928;2023-12-29T05:35:24;100185.49;;;17.05;26.53
81999;BME280;71598;46.516;-122.928;2023-12-29T05:37:50;100184.52;;;16.82;26.71
81999;BME280;71598;46.516;-122.928;2023-12-29T05:40:16;100181.21;;;16.80;26.88
81999;BME280;71598;46.516;-122.928;2023-12-29T05:42:41;100181.37;;;17.02;26.56
81999;BME280;71598;46.516;-122.928;2023-12-29T05:45:07;100176.90;;;15.34;27.45
81999;BME280;71598;46.516;-122.928;2023-12-29T05:47:32;100172.35;;;16.39;27.22
81999;BME280;71598;46.516;-122.928;2023-12-29T05:49:57;100171.08;;;16.20;27.51
81999;BME280;71598;46.516;-122.928;2023-12-29T05:52:23;100165.23;;;16.20;27.37
81999;BME280;71598;46.516;-122.928;2023-12-29T05:54:49;100159.29;;;16.64;27.31
81999;BME280;71598;46.516;-122.928;2023-12-29T05:57:14;100152.98;;;16.75;27.08
81999;BME280;71598;46.516;-122.928;2023-12-29T05:59:41;100152.23;;;15.85;27.57
81999;BME280;71598;46.516;-122.928;2023-12-29T06:02:05;100146.43;;;15.90;27.71
81999;BME280;71598;46.516;-122.928;2023-12-29T06:04:31;100140.98;;;17.03;26.78
81999;BME280;71598;46.516;-122.928;2023-12-29T06:06:56;100142.22;;;15.57;27.72
81999;BME280;71598;46.516;-122.928;2023-12-29T06:09:22;100142.50;;;15.80;27.84
81999;BME280;71598;46.516;-122.928;2023-12-29T06:11:50;100145.14;;;15.99;27.52
81999;BME280;71598;46.516;-122.928;2023-12-29T06:14:12;100140.71;;;16.41;27.60
81999;BME280;71598;46.516;-122.928;2023-12-29T06:16:39;100138.44;;;15.67;28.06
81999;BME280;71598;46.516;-122.928;2023-12-29T06:19:03;100133.58;;;15.72;28.03
81999;BME280;71598;46.516;-122.928;2023-12-29T06:21:29;100131.74;;;16.30;27.51
81999;BME280;71598;46.516;-122.928;2023-12-29T06:23:54;100127.75;;;16.64;27.32
81999;BME280;71598;46.516;-122.928;2023-12-29T06:26:20;100122.87;;;17.23;26.73
81999;BME280;71598;46.516;-122.928;2023-12-29T06:28:44;100116.22;;;17.36;26.74
81999;BME280;71598;46.516;-122.928;2023-12-29T06:31:09;100112.34;;;16.64;27.33
81999;BME280;71598;46.516;-122.928;2023-12-29T06:33:36;100110.47;;;16.76;26.98
81999;BME280;71598;46.516;-122.928;2023-12-29T06:36:01;100114.09;;;16.85;26.91
81999;BME280;71598;46.516;-122.928;2023-12-29T06:38:26;100110.53;;;16.12;27.55
81999;BME280;71598;46.516;-122.928;2023-12-29T06:40:51;100108.74;;;15.74;27.95
81999;BME280;71598;46.516;-122.928;2023-12-29T06:43:16;100109.13;;;17.80;26.30
81999;BME280;71598;46.516;-122.928;2023-12-29T06:45:42;100109.42;;;16.41;27.20
81999;BME280;71598;46.516;-122.928;2023-12-29T06:48:08;100104.59;;;17.37;26.34
81999;BME280;71598;46.516;-122.928;2023-12-29T06:50:33;100103.40;;;17.03;26.74
81999;BME280;71598;46.516;-122.928;2023-12-29T06:52:58;100099.23;;;16.84;26.69
81999;BME280;71598;46.516;-122.928;2023-12-29T06:55:25;100096.23;;;16.28;27.17
81999;BME280;71598;46.516;-122.928;2023-12-29T06:57:51;100091.15;;;16.76;27.03
81999;BME280;71598;46.516;-122.928;2023-12-29T07:00:15;100089.12;;;16.48;27.14
81999;BME280;71598;46.516;-122.928;2023-12-29T07:02:40;100087.48;;;16.40;27.17
81999;BME280;71598;46.516;-122.928;2023-12-29T07:05:07;100078.75;;;16.41;27.20
81999;BME280;71598;46.516;-122.928;2023-12-29T07:07:31;100071.38;;;16.51;26.83
81999;BME280;71598;46.516;-122.928;2023-12-29T07:09:57;100073.48;;;16.97;26.63
81999;BME280;71598;46.516;-122.928;2023-12-29T07:12:25;100075.89;;;16.55;26.93
81999;BME280;71598;46.516;-122.928;2023-12-29T07:14:48;100076.37;;;16.19;27.23
81999;BME280;71598;46.516;-122.928;2023-12-29T07:17:14;100071.31;;;15.62;27.42
81999;BME280;71598;46.516;-122.928;2023-12-29T07:19:39;100068.54;;;16.21;27.52
81999;BME280;71598;46.516;-122.928;2023-12-29T07:22:05;100066.38;;;15.94;27.46
81999;BME280;71598;46.516;-122.928;2023-12-29T07:24:30;100064.08;;;15.74;27.48
81999;BME280;71598;46.516;-122.928;2023-12-29T07:26:55;100057.29;;;15.82;27.57
81999;BME280;71598;46.516;-122.928;2023-12-29T07:29:20;100052.44;;;15.90;27.30
81999;BME280;71598;46.516;-122.928;2023-12-29T07:31:45;100046.30;;;15.73;27.68
81999;BME280;71598;46.516;-122.928;2023-12-29T07:34:12;100037.18;;;15.97;27.50
81999;BME280;71598;46.516;-122.928;2023-12-29T07:36:39;100034.79;;;15.84;27.69
81999;BME280;71598;46.516;-122.928;2023-12-29T07:39:02;100025.42;;;15.96;27.45
81999;BME280;71598;46.516;-122.928;2023-12-29T07:41:27;100024.48;;;16.56;27.02
81999;BME280;71598;46.516;-122.928;2023-12-29T07:43:52;100024.69;;;16.91;26.62
81999;BME280;71598;46.516;-122.928;2023-12-29T07:46:24;100025.18;;;17.25;26.19
81999;BME280;71598;46.516;-122.928;2023-12-29T07:48:44;100025.62;;;16.06;26.98
81999;BME280;71598;46.516;-122.928;2023-12-29T07:51:09;100024.77;;;16.18;27.07
81999;BME280;71598;46.516;-122.928;2023-12-29T07:53:34;100025.71;;;16.11;27.25
81999;BME280;71598;46.516;-122.928;2023-12-29T07:55:59;100020.73;;;15.98;27.27
81999;BME280;71598;46.516;-122.928;2023-12-29T07:58:25;100008.46;;;15.68;27.39
81999;BME280;71598;46.516;-122.928;2023-12-29T08:00:50;99998.16;;;15.23;27.63
81999;BME280;71598;46.516;-122.928;2023-12-29T08:03:15;99992.35;;;15.56;27.52
81999;BME280;71598;46.516;-122.928;2023-12-29T08:05:42;99990.40;;;15.86;27.27
81999;BME280;71598;46.516;-122.928;2023-12-29T08:08:07;99995.13;;;15.35;27.57
81999;BME280;71598;46.516;-122.928;2023-12-29T08:10:32;99995.76;;;15.74;27.28
81999;BME280;71598;46.516;-122.928;2023-12-29T08:12:59;99996.14;;;15.48;27.35
81999;BME280;71598;46.516;-122.928;2023-12-29T08:15:23;99991.93;;;15.51;27.33
81999;BME280;71598;46.516;-122.928;2023-12-29T08:17:49;99989.85;;;15.68;27.43
81999;BME280;71598;46.516;-122.928;2023-12-29T08:20:14;99983.77;;;15.78;27.39
81999;BME280;71598;46.516;-122.928;2023-12-29T08:22:39;99983.21;;;15.41;27.70
81999;BME280;71598;46.516;-122.928;2023-12-29T08:25:05;99986.03;;;15.01;27.73
81999;BME280;71598;46.516;-122.928;2023-12-29T08:27:30;99980.77;;;15.02;27.87
81999;BME280;71598;46.516;-122.928;2023-12-29T08:29:55;99981.28;;;15.66;27.73
81999;BME280;71598;46.516;-122.928;2023-12-29T08:32:21;99964.95;;;15.83;27.32
81999;BME280;71598;46.516;-122.928;2023-12-29T08:34:47;99966.73;;;15.41;27.57
81999;BME280;71598;46.516;-122.928;2023-12-29T08:37:11;99948.10;;;15.83;27.50
81999;BME280;71598;46.516;-122.928;2023-12-29T08:39:38;99948.05;;;15.84;27.55
81999;BME280;71598;46.516;-122.928;2023-12-29T08:42:03;99932.15;;;15.22;27.50
81999;BME280;71598;46.516;-122.928;2023-12-29T08:44:28;99923.69;;;15.75;27.25
81999;BME280;71598;46.516;-122.928;2023-12-29T08:46:54;99912.46;;;15.90;27.12
81999;BME280;71598;46.516;-122.928;2023-12-29T08:49:19;99910.45;;;15.54;27.30
81999;BME280;71598;46.516;-122.928;2023-12-29T08:51:45;99901.68;;;15.26;27.35
81999;BME280;71598;46.516;-122.928;2023-12-29T08:54:10;99894.87;;;15.69;27.18
81999;BME280;71598;46.516;-122.928;2023-12-29T08:56:36;99897.92;;;15.27;27.48
81999;BME280;71598;46.516;-122.928;2023-12-29T08:59:01;99899.29;;;14.90;27.70
81999;BME280;71598;46.516;-122.928;2023-12-29T09:01:26;99893.10;;;15.31;27.49
81999;BME280;71598;46.516;-122.928;2023-12-29T09:03:52;99888.20;;;15.94;27.25
81999;BME280;71598;46.516;-122.928;2023-12-29T09:06:17;99882.59;;;15.43;27.20
81999;BME280;71598;46.516;-122.928;2023-12-29T09:08:42;99888.46;;;15.52;27.40
81999;BME280;71598;46.516;-122.928;2023-12-29T09:11:07;99894.03;;;15.10;27.42
81999;BME280;71598;46.516;-122.928;2023-12-29T09:13:34;99892.83;;;15.14;27.59
81999;BME280;71598;46.516;-122.928;2023-12-29T09:16:00;99890.29;;;15.28;27.30
81999;BME280;71598;46.516;-122.928;2023-12-29T09:18:24;99888.08;;;15.21;27.50
81999;BME280;71598;46.516;-122.928;2023-12-29T09:20:50;99885.24;;;15.47;27.32
81999;BME280;71598;46.516;-122.928;2023-12-29T09:23:15;99882.96;;;15.75;27.18
81999;BME280;71598;46.516;-122.928;2023-12-29T09:25:41;99882.11;;;15.06;27.44
81999;BME280;71598;46.516;-122.928;2023-12-29T09:28:05;99887.19;;;15.11;27.67
81999;BME280;71598;46.516;-122.928;2023-12-29T09:30:31;99890.55;;;15.63;27.29
81999;BME280;71598;46.516;-122.928;2023-12-29T09:32:56;99884.60;;;15.38;27.45
81999;BME280;71598;46.516;-122.928;2023-12-29T09:35:22;99886.13;;;14.89;27.62
81999;BME280;71598;46.516;-122.928;2023-12-29T09:37:46;99879.35;;;14.87;27.63
81999;BME280;71598;46.516;-122.928;2023-12-29T09:40:14;99880.51;;;14.93;27.62
81999;BME280;71598;46.516;-122.928;2023-12-29T09:42:39;99867.39;;;14.33;27.90
81999;BME280;71598;46.516;-122.928;2023-12-29T09:45:03;99859.66;;;14.52;27.94
81999;BME280;71598;46.516;-122.928;2023-12-29T09:47:29;99868.38;;;15.00;27.68
81999;BME280;71598;46.516;-122.928;2023-12-29T09:49:54;99854.04;;;15.38;27.13
81999;BME280;71598;46.516;-122.928;2023-12-29T09:52:20;99854.03;;;14.97;27.63
81999;BME280;71598;46.516;-122.928;2023-12-29T09:54:45;99844.90;;;15.03;27.58
81999;BME280;71598;46.516;-122.928;2023-12-29T09:57:10;99832.55;;;15.02;27.38
81999;BME280;71598;46.516;-122.928;2023-12-29T09:59:36;99860.03;;;15.27;27.35
81999;BME280;71598;46.516;-122.928;2023-12-29T10:02:00;99884.82;;;15.55;27.17
81999;BME280;71598;46.516;-122.928;2023-12-29T10:04:25;99901.88;;;15.84;27.05
81999;BME280;71598;46.516;-122.928;2023-12-29T10:06:52;99903.16;;;15.41;27.01
81999;BME280;71598;46.516;-122.928;2023-12-29T10:09:17;99909.68;;;15.90;26.80
81999;BME280;71598;46.516;-122.928;2023-12-29T10:11:43;99907.47;;;15.08;27.42
81999;BME280;71598;46.516;-122.928;2023-12-29T10:14:18;99904.34;;;16.07;26.59
81999;BME280;71598;46.516;-122.928;2023-12-29T10:16:37;99901.05;;;15.31;26.79
81999;BME280;71598;46.516;-122.928;2023-12-29T10:19:08;99898.86;;;14.65;27.23
81999;BME280;71598;46.516;-122.928;2023-12-29T10:21:28;99890.82;;;15.15;27.02
81999;BME280;71598;46.516;-122.928;2023-12-29T10:23:55;99890.30;;;14.42;27.70
81999;BME280;71598;46.516;-122.928;2023-12-29T10:26:15;99884.27;;;15.10;27.37
81999;BME280;71598;46.516;-122.928;2023-12-29T10:28:40;99880.86;;;14.86;27.66
81999;BME280;71598;46.516;-122.928;2023-12-29T10:31:06;99875.37;;;14.71;27.38
81999;BME280;71598;46.516;-122.928;2023-12-29T10:33:32;99874.65;;;14.98;27.26
81999;BME280;71598;46.516;-122.928;2023-12-29T10:35:58;99875.55;;;14.65;27.57
81999;BME280;71598;46.516;-122.928;2023-12-29T10:38:23;99863.93;;;15.29;27.28
81999;BME280;71598;46.516;-122.928;2023-12-29T10:40:48;99860.93;;;15.42;26.95
81999;BME280;71598;46.516;-122.928;2023-12-29T10:43:13;99863.09;;;15.13;27.10
81999;BME280;71598;46.516;-122.928;2023-12-29T10:45:38;99860.61;;;15.79;26.71
81999;BME280;71598;46.516;-122.928;2023-12-29T10:48:05;99863.45;;;15.31;26.88
81999;BME280;71598;46.516;-122.928;2023-12-29T10:50:29;99866.70;;;14.99;27.26
81999;BME280;71598;46.516;-122.928;2023-12-29T10:53:11;99865.48;;;15.21;27.03
81999;BME280;71598;46.516;-122.928;2023-12-29T10:55:20;99874.00;;;14.75;27.28
81999;BME280;71598;46.516;-122.928;2023-12-29T10:57:46;99876.14;;;14.66;27.50
81999;BME280;71598;46.516;-122.928;2023-12-29T11:00:13;99871.27;;;14.56;27.46
81999;BME280;71598;46.516;-122.928;2023-12-29T11:02:37;99870.97;;;14.65;27.57
81999;BME280;71598;46.516;-122.928;2023-12-29T11:05:05;99875.20;;;14.70;27.56
81999;BME280;71598;46.516;-122.928;2023-12-29T11:07:34;99872.05;;;14.69;27.20
81999;BME280;71598;46.516;-122.928;2023-12-29T11:09:54;99860.29;;;15.46;26.73
81999;BME280;71598;46.516;-122.928;2023-12-29T11:12:19;99859.62;;;15.04;27.10
81999;BME280;71598;46.516;-122.928;2023-12-29T11:14:47;99856.93;;;14.85;27.53
81999;BME280;71598;46.516;-122.928;2023-12-29T11:17:11;99844.56;;;14.49;27.64
81999;BME280;71598;46.516;-122.928;2023-12-29T11:19:36;99833.62;;;14.28;27.61
81999;BME280;71598;46.516;-122.928;2023-12-29T11:22:02;99830.63;;;15.01;27.23
81999;BME280;71598;46.516;-122.928;2023-12-29T11:24:28;99827.18;;;14.74;27.32
81999;BME280;71598;46.516;-122.928;2023-12-29T11:26:53;99825.68;;;15.17;26.91
81999;BME280;71598;46.516;-122.928;2023-12-29T11:29:19;99823.38;;;15.35;26.92
81999;BME280;71598;46.516;-122.928;2023-12-29T11:31:46;99833.98;;;15.41;26.87
81999;BME280;71598;46.516;-122.928;2023-12-29T11:34:12;99832.37;;;15.41;26.84
81999;BME280;71598;46.516;-122.928;2023-12-29T11:36:37;99819.70;;;15.38;26.90
81999;BME280;71598;46.516;-122.928;2023-12-29T11:39:04;99817.59;;;14.63;27.23
81999;BME280;71598;46.516;-122.928;2023-12-29T11:41:33;99817.36;;;15.28;26.93
81999;BME280;71598;46.516;-122.928;2023-12-29T11:43:59;99809.90;;;14.71;27.06
81999;BME280;71598;46.516;-122.928;2023-12-29T11:46:44;99809.13;;;14.60;27.40
81999;BME280;71598;46.516;-122.928;2023-12-29T11:49:05;99808.92;;;14.54;27.23
81999;BME280;71598;46.516;-122.928;2023-12-29T11:51:28;99808.34;;;14.15;27.44
81999;BME280;71598;46.516;-122.928;2023-12-29T11:53:32;99801.89;;;15.05;27.05
81999;BME280;71598;46.516;-122.928;2023-12-29T11:55:57;99800.27;;;14.50;27.40
81999;BME280;71598;46.516;-122.928;2023-12-29T11:58:26;99800.29;;;14.13;27.69
81999;BME280;71598;46.516;-122.928;2023-12-29T12:00:48;99785.32;;;14.00;27.72
81999;BME280;71598;46.516;-122.928;2023-12-29T12:03:17;99777.12;;;14.56;27.36
81999;BME280;71598;46.516;-122.928;2023-12-29T12:05:49;99784.44;;;14.25;27.57
81999;BME280;71598;46.516;-122.928;2023-12-29T12:08:06;99781.26;;;14.40;27.32
81999;BME280;71598;46.516;-122.928;2023-12-29T12:10:31;99785.98;;;14.25;27.42
81999;BME280;71598;46.516;-122.928;2023-12-29T12:12:55;99777.32;;;14.97;26.83